createdAt,value
2018-06-11T00:00:16.366Z,23.30
2018-06-11T00:02:43.489Z,23.30
2018-06-11T00:05:11.127Z,23.10
2018-06-11T00:07:38.871Z,23.00
2018-06-11T00:10:06.426Z,23.00
2018-06-11T00:12:33.646Z,22.80
2018-06-11T00:15:00.908Z,22.80
2018-06-11T00:17:28.259Z,22.70
2018-06-11T00:19:56.270Z,22.60
2018-06-11T00:22:23.394Z,22.60
2018-06-11T00:24:50.411Z,22.60
2018-06-11T00:27:17.590Z,22.50
2018-06-11T00:29:45.583Z,22.30
2018-06-11T00:32:12.745Z,22.30
2018-06-11T00:34:39.896Z,22.20
2018-06-11T00:37:07.136Z,22.20
2018-06-11T00:39:33.990Z,22.10
2018-06-11T00:42:00.940Z,22.00
2018-06-11T00:44:27.812Z,22.00
2018-06-11T00:46:54.664Z,21.80
2018-06-11T00:49:21.596Z,21.80
2018-06-11T00:51:48.463Z,21.70
2018-06-11T00:54:15.396Z,21.70
2018-06-11T00:56:42.292Z,21.60
2018-06-11T00:59:09.245Z,21.70
2018-06-11T01:01:36.184Z,21.70
2018-06-11T01:04:03.149Z,21.50
2018-06-11T01:06:30.014Z,21.60
2018-06-11T01:08:57.158Z,21.50
2018-06-11T01:11:24.040Z,21.60
2018-06-11T01:13:50.982Z,21.70
2018-06-11T01:16:17.854Z,21.70
2018-06-11T01:18:44.805Z,21.60
2018-06-11T01:21:11.812Z,21.70
2018-06-11T01:23:38.764Z,21.60
2018-06-11T01:26:05.753Z,21.70
2018-06-11T01:28:32.761Z,21.60
2018-06-11T01:30:59.627Z,21.50
2018-06-11T01:33:27.236Z,21.50
2018-06-11T01:35:54.178Z,21.50
2018-06-11T01:38:21.127Z,21.40
2018-06-11T01:40:47.992Z,21.50
2018-06-11T01:43:14.932Z,21.50
2018-06-11T01:45:41.919Z,21.60
2018-06-11T01:48:09.650Z,21.60
2018-06-11T01:50:36.652Z,21.60
2018-06-11T01:53:03.583Z,21.50
2018-06-11T01:55:30.461Z,21.50
2018-06-11T02:00:30.828Z,21.40
2018-06-11T02:02:57.816Z,21.40
2018-06-11T02:05:25.429Z,21.20
2018-06-11T02:07:52.348Z,21.20
2018-06-11T02:10:19.302Z,21.20
2018-06-11T02:12:46.160Z,21.10
2018-06-11T02:15:13.036Z,21.20
2018-06-11T02:17:39.975Z,21.20
2018-06-11T02:20:06.815Z,21.20
2018-06-11T02:22:33.733Z,21.20
2018-06-11T02:25:00.640Z,21.10
2018-06-11T02:27:28.304Z,21.10
2018-06-11T02:29:55.184Z,21.10
2018-06-11T02:32:22.124Z,21.00
2018-06-11T02:34:49.033Z,21.00
2018-06-11T02:37:16.710Z,20.90
2018-06-11T02:39:43.584Z,20.90
2018-06-11T02:42:10.452Z,21.00
2018-06-11T02:44:37.384Z,20.90
2018-06-11T02:47:04.275Z,21.00
2018-06-11T02:49:31.239Z,21.00
2018-06-11T02:51:58.137Z,21.00
2018-06-11T02:54:25.071Z,21.00
2018-06-11T02:56:52.016Z,21.00
2018-06-11T02:59:18.869Z,21.00
2018-06-11T03:01:45.807Z,21.00
2018-06-11T03:04:12.824Z,20.90
2018-06-11T03:06:39.704Z,20.80
2018-06-11T03:09:06.677Z,20.90
2018-06-11T03:11:34.308Z,20.80
2018-06-11T03:14:01.305Z,20.80
2018-06-11T03:16:28.223Z,20.70
2018-06-11T03:18:55.848Z,20.70
2018-06-11T03:21:22.781Z,20.70
2018-06-11T03:23:49.643Z,20.70
2018-06-11T03:26:16.563Z,20.70
2018-06-11T03:28:43.493Z,20.70
2018-06-11T03:31:10.369Z,20.80
2018-06-11T03:33:37.226Z,20.80
2018-06-11T03:36:04.255Z,20.70
2018-06-11T03:38:31.104Z,20.80
2018-06-11T03:40:58.048Z,20.80
2018-06-11T03:43:24.940Z,20.80
2018-06-11T03:45:51.805Z,20.80
2018-06-11T03:48:18.775Z,20.80
2018-06-11T03:50:45.730Z,20.90
2018-06-11T03:53:12.697Z,20.90
2018-06-11T03:55:39.559Z,20.80
2018-06-11T03:58:06.408Z,20.90
2018-06-11T04:00:33.408Z,20.90
2018-06-11T04:03:00.380Z,20.80
2018-06-11T04:05:27.304Z,20.80
2018-06-11T04:07:54.241Z,20.90
2018-06-11T04:10:21.149Z,20.90
2018-06-11T04:12:48.168Z,21.00
2018-06-11T04:15:15.040Z,21.00
2018-06-11T04:17:41.899Z,21.00
2018-06-11T04:20:11.196Z,21.10
2018-06-11T04:22:38.946Z,21.10
2018-06-11T04:25:06.624Z,21.00
2018-06-11T04:27:48.695Z,21.00
2018-06-11T04:30:18.937Z,21.00
2018-06-11T04:32:46.583Z,21.60
2018-06-11T04:35:16.220Z,21.60
2018-06-11T04:37:46.469Z,22.10
2018-06-11T04:40:25.450Z,23.10
2018-06-11T04:42:53.380Z,23.10
2018-06-11T04:45:20.374Z,23.40
2018-06-11T04:47:48.119Z,23.10
2018-06-11T04:50:15.108Z,23.10
2018-06-11T04:52:42.701Z,23.90
2018-06-11T04:55:09.652Z,23.80
2018-06-11T04:57:36.604Z,24.20
2018-06-11T05:00:03.945Z,24.00
2018-06-11T05:02:30.880Z,24.20
2018-06-11T05:04:58.019Z,24.50
2018-06-11T05:07:34.895Z,26.80
2018-06-11T05:10:03.319Z,29.10
2018-06-11T05:12:30.220Z,29.10
2018-06-11T05:14:58.696Z,28.20
2018-06-11T05:17:27.003Z,28.20
2018-06-11T05:19:53.925Z,28.60
2018-06-11T05:22:22.482Z,28.70
2018-06-11T05:24:49.417Z,29.80
2018-06-11T05:27:20.606Z,30.10
2018-06-11T05:29:49.297Z,30.40
2018-06-11T05:32:18.341Z,28.60
2018-06-11T05:34:47.578Z,27.40
2018-06-11T05:37:15.512Z,25.60
2018-06-11T05:39:43.519Z,25.50
2018-06-11T05:42:12.103Z,25.20
2018-06-11T05:44:48.388Z,24.80
2018-06-11T05:47:19.069Z,24.60
2018-06-11T05:49:46.011Z,24.50
2018-06-11T05:52:12.952Z,24.40
2018-06-11T05:54:40.921Z,24.60
2018-06-11T05:57:07.865Z,24.50
2018-06-11T05:59:37.514Z,24.50
2018-06-11T06:02:05.378Z,24.70
2018-06-11T06:04:34.438Z,24.60
2018-06-11T06:07:02.350Z,24.80
2018-06-11T06:09:30.580Z,24.70
2018-06-11T06:11:57.529Z,24.60
2018-06-11T06:14:24.409Z,24.60
2018-06-11T06:16:52.119Z,24.50
2018-06-11T06:19:22.180Z,24.50
2018-06-11T06:21:50.670Z,24.20
2018-06-11T06:24:18.382Z,24.50
2018-06-11T06:26:46.298Z,24.50
2018-06-11T06:29:14.459Z,24.10
2018-06-11T06:31:41.359Z,24.00
2018-06-11T06:34:08.323Z,24.00
2018-06-11T06:36:35.278Z,24.40
2018-06-11T06:39:02.229Z,24.40
2018-06-11T06:41:29.269Z,24.20
2018-06-11T06:43:56.257Z,24.20
2018-06-11T06:46:23.123Z,24.40
2018-06-11T06:48:50.063Z,24.50
2018-06-11T06:51:16.952Z,24.60
2018-06-11T06:53:44.284Z,24.90
2018-06-11T06:56:11.559Z,24.60
2018-06-11T06:58:38.664Z,24.80
2018-06-11T07:01:05.868Z,24.90
2018-06-11T07:03:33.239Z,25.00
2018-06-11T07:06:00.361Z,25.40
2018-06-11T07:08:27.426Z,25.50
2018-06-11T07:10:54.524Z,25.80
2018-06-11T07:13:21.774Z,26.10
2018-06-11T07:15:49.675Z,25.90
2018-06-11T07:18:16.777Z,25.90
2018-06-11T07:20:44.557Z,25.50
2018-06-11T07:23:11.626Z,25.50
2018-06-11T07:25:38.766Z,26.00
2018-06-11T07:28:05.785Z,26.20
2018-06-11T07:30:32.792Z,26.20
2018-06-11T07:32:59.813Z,26.00
2018-06-11T07:35:26.897Z,25.80
2018-06-11T07:37:54.009Z,25.80
2018-06-11T07:40:21.061Z,25.80
2018-06-11T07:42:48.130Z,25.90
2018-06-11T07:45:15.397Z,25.60
2018-06-11T07:47:42.523Z,25.90
2018-06-11T07:50:09.623Z,25.90
2018-06-11T07:52:36.805Z,25.80
2018-06-11T07:55:04.554Z,25.50
2018-06-11T07:57:32.383Z,25.70
2018-06-11T07:59:59.618Z,25.70
2018-06-11T08:02:26.558Z,25.50
2018-06-11T08:04:53.583Z,25.50
2018-06-11T08:07:21.268Z,25.60
2018-06-11T08:09:48.156Z,25.60
2018-06-11T08:12:15.168Z,25.90
2018-06-11T08:14:42.046Z,26.30
2018-06-11T08:17:09.064Z,26.60
2018-06-11T08:19:35.968Z,26.50
2018-06-11T08:22:03.657Z,26.20
2018-06-11T08:24:30.616Z,26.20
2018-06-11T08:26:57.594Z,26.10
2018-06-11T08:29:27.049Z,26.40
2018-06-11T08:31:54.097Z,26.80
2018-06-11T08:34:22.772Z,27.10
2018-06-11T08:36:50.507Z,28.20
2018-06-11T08:39:17.481Z,28.10
2018-06-11T08:41:47.843Z,28.60
2018-06-11T08:44:15.816Z,28.60
2018-06-11T08:46:45.026Z,28.70
2018-06-11T08:49:11.992Z,28.70
2018-06-11T08:51:39.042Z,28.80
2018-06-11T08:54:06.080Z,29.80
2018-06-11T08:56:33.076Z,30.20
2018-06-11T08:58:59.972Z,30.50
2018-06-11T09:01:27.054Z,30.30
2018-06-11T09:03:53.993Z,29.60
2018-06-11T09:06:20.989Z,29.10
2018-06-11T09:08:49.747Z,30.00
2018-06-11T09:11:17.466Z,30.40
2018-06-11T09:13:44.538Z,31.20
2018-06-11T09:16:11.502Z,31.00
2018-06-11T09:18:39.242Z,30.40
2018-06-11T09:21:06.305Z,30.40
2018-06-11T09:23:33.266Z,30.00
2018-06-11T09:26:00.249Z,29.70
2018-06-11T09:28:27.185Z,29.40
2018-06-11T09:30:54.260Z,30.00
2018-06-11T09:33:21.247Z,30.70
2018-06-11T09:35:48.574Z,31.60
2018-06-11T09:38:16.813Z,31.70
2018-06-11T09:40:50.029Z,32.00
2018-06-11T09:43:17.190Z,31.50
2018-06-11T09:45:44.177Z,31.70
2018-06-11T09:48:11.168Z,31.60
2018-06-11T09:50:38.131Z,31.60
2018-06-11T09:53:05.032Z,31.10
2018-06-11T09:55:32.046Z,30.10
2018-06-11T09:57:59.043Z,29.90
2018-06-11T10:00:26.160Z,30.40
2018-06-11T10:02:53.845Z,29.90
2018-06-11T10:05:20.855Z,29.90
2018-06-11T10:07:48.618Z,29.40
2018-06-11T10:10:16.377Z,29.10
2018-06-11T10:12:43.404Z,29.20
2018-06-11T10:15:13.276Z,29.50
2018-06-11T10:17:40.487Z,29.70
2018-06-11T10:20:08.496Z,30.20
2018-06-11T10:22:35.423Z,30.50
2018-06-11T10:25:03.729Z,30.90
2018-06-11T10:27:31.128Z,31.00
2018-06-11T10:29:58.977Z,30.60
2018-06-11T10:32:29.424Z,31.00
2018-06-11T10:35:00.611Z,30.80
2018-06-11T10:37:31.628Z,31.00
2018-06-11T10:39:59.678Z,31.30
2018-06-11T10:42:37.071Z,30.70
2018-06-11T10:47:37.437Z,30.00
2018-06-11T10:50:05.202Z,29.80
2018-06-11T10:52:32.148Z,29.80
2018-06-11T10:54:59.084Z,29.60
2018-06-11T10:57:25.977Z,29.50
2018-06-11T10:59:53.092Z,29.80
2018-06-11T11:02:20.813Z,30.20
2018-06-11T11:04:48.352Z,30.20
2018-06-11T11:07:22.848Z,30.00
2018-06-11T11:09:51.681Z,29.80
2018-06-11T11:12:20.441Z,29.60
2018-06-11T11:14:58.721Z,30.10
2018-06-11T11:17:25.836Z,30.10
2018-06-11T11:19:54.586Z,30.00
2018-06-11T11:22:24.802Z,29.90
2018-06-11T11:24:52.041Z,29.90
2018-06-11T11:27:22.185Z,30.10
2018-06-11T11:30:05.689Z,30.40
2018-06-11T11:32:34.671Z,30.30
2018-06-11T11:35:02.744Z,30.60
2018-06-11T11:37:29.838Z,30.90
2018-06-11T11:39:56.872Z,30.90
2018-06-11T11:42:26.192Z,31.00
2018-06-11T11:44:57.573Z,30.40
2018-06-11T11:47:27.999Z,30.80
2018-06-11T11:49:57.033Z,30.70
2018-06-11T11:52:34.761Z,31.00
2018-06-11T11:55:04.165Z,31.10
2018-06-11T11:57:31.465Z,30.60
2018-06-11T12:00:01.536Z,30.00
2018-06-11T12:02:33.024Z,30.00
2018-06-11T12:05:00.798Z,29.90
2018-06-11T12:07:31.028Z,29.50
2018-06-11T12:10:01.364Z,29.10
2018-06-11T12:12:33.533Z,29.10
2018-06-11T12:15:04.329Z,28.80
2018-06-11T12:17:31.543Z,28.40
2018-06-11T12:19:59.199Z,28.30
2018-06-11T12:22:26.107Z,28.30
2018-06-11T12:24:53.242Z,28.10
2018-06-11T12:27:25.424Z,28.10
2018-06-11T12:29:53.479Z,28.00
2018-06-11T12:32:26.257Z,27.90
2018-06-11T12:34:58.854Z,27.90
2018-06-11T12:37:37.975Z,27.90
2018-06-11T12:40:10.154Z,27.80
2018-06-11T12:42:37.219Z,27.60
2018-06-11T12:45:04.193Z,27.60
2018-06-11T12:47:31.957Z,27.70
2018-06-11T12:50:01.772Z,27.70
2018-06-11T12:52:30.218Z,27.70
2018-06-11T12:55:00.512Z,27.70
2018-06-11T12:57:31.109Z,27.80
2018-06-11T12:59:58.170Z,27.70
2018-06-11T13:02:26.247Z,27.70
2018-06-11T13:04:53.313Z,27.50
2018-06-11T13:07:20.271Z,27.50
2018-06-11T13:09:47.273Z,27.30
2018-06-11T13:12:15.613Z,27.20
2018-06-11T13:14:42.684Z,27.20
2018-06-11T13:17:10.641Z,26.90
2018-06-11T13:19:38.987Z,27.00
2018-06-11T13:22:06.343Z,26.90
2018-06-11T13:24:33.363Z,26.90
2018-06-11T13:27:00.325Z,27.00
2018-06-11T13:29:28.053Z,26.90
2018-06-11T13:31:56.656Z,26.90
2018-06-11T13:34:24.008Z,26.70
2018-06-11T13:36:51.323Z,26.70
2018-06-11T13:39:18.621Z,26.60
2018-06-11T13:41:45.574Z,26.50
2018-06-11T13:44:14.038Z,26.40
2018-06-11T13:46:40.979Z,26.40
2018-06-11T13:49:08.017Z,26.40
2018-06-11T13:51:36.136Z,26.30
2018-06-11T13:54:04.977Z,26.20
2018-06-11T13:56:31.852Z,26.20
2018-06-11T13:58:59.585Z,26.00
2018-06-11T14:01:26.948Z,25.90
2018-06-11T14:03:54.234Z,25.80
2018-06-11T14:06:21.181Z,25.70
2018-06-11T14:08:48.132Z,25.30
2018-06-11T14:11:15.106Z,25.20
2018-06-11T14:13:42.004Z,25.20
2018-06-11T14:16:08.964Z,25.00
2018-06-11T14:18:36.645Z,25.10
2018-06-11T14:21:04.368Z,24.90
2018-06-11T14:23:31.252Z,24.90
2018-06-11T14:25:58.209Z,24.80
2018-06-11T14:28:25.068Z,24.60
2018-06-11T14:30:52.002Z,24.60
2018-06-11T14:33:18.918Z,24.60
2018-06-11T14:35:46.570Z,24.50
2018-06-11T14:38:13.561Z,24.50
2018-06-11T14:40:40.611Z,24.50
2018-06-11T14:43:07.616Z,24.30
2018-06-11T14:45:34.522Z,24.20
2018-06-11T14:48:01.464Z,24.30
2018-06-11T14:50:35.014Z,24.30
2018-06-11T14:53:02.254Z,24.60
2018-06-11T14:55:29.150Z,24.60
2018-06-11T14:57:56.121Z,24.60
2018-06-11T15:00:23.774Z,24.50
2018-06-11T15:02:52.830Z,24.50
2018-06-11T15:05:20.604Z,24.20
2018-06-11T15:07:47.537Z,24.20
2018-06-11T15:10:14.498Z,24.20
2018-06-11T15:12:41.412Z,23.80
2018-06-11T15:15:08.439Z,23.90
2018-06-11T15:17:36.341Z,23.60
2018-06-11T15:20:03.994Z,23.50
2018-06-11T15:22:31.064Z,23.50
2018-06-11T15:24:57.995Z,23.60
2018-06-11T15:27:24.953Z,23.50
2018-06-11T15:29:51.916Z,23.30
2018-06-11T15:32:26.844Z,23.20
2018-06-11T15:34:54.882Z,23.00
2018-06-11T15:37:21.836Z,22.90
2018-06-11T15:39:59.259Z,22.80
2018-06-11T15:42:27.148Z,22.70
2018-06-11T15:47:33.946Z,22.50
2018-06-11T15:50:00.824Z,22.30
2018-06-11T15:52:38.387Z,22.30
2018-06-11T15:55:08.934Z,22.20
2018-06-11T15:57:35.938Z,22.20
2018-06-11T16:00:05.609Z,22.10
2018-06-11T16:02:36.062Z,22.00
2018-06-11T16:05:06.363Z,22.00
2018-06-11T16:07:36.600Z,21.80
2018-06-11T16:10:05.353Z,21.80
2018-06-11T16:12:32.621Z,21.70
2018-06-11T16:14:59.603Z,21.70
2018-06-11T16:17:27.337Z,21.80
2018-06-11T16:22:49.940Z,21.80
2018-06-11T16:25:20.624Z,21.80
2018-06-11T16:27:50.777Z,21.70
2018-06-11T16:30:17.730Z,21.70
2018-06-11T16:32:47.272Z,21.70
2018-06-11T16:35:14.203Z,21.60
2018-06-11T16:37:42.708Z,21.60
2018-06-11T16:40:10.123Z,21.50
2018-06-11T16:42:37.128Z,21.40
2018-06-11T16:45:05.294Z,21.40
2018-06-11T16:47:33.262Z,21.40
2018-06-11T16:50:00.200Z,21.30
2018-06-11T16:52:30.981Z,21.30
2018-06-11T16:54:57.952Z,21.20
2018-06-11T16:57:26.759Z,21.00
2018-06-11T16:59:54.035Z,20.90
2018-06-11T17:02:21.113Z,21.00
2018-06-11T17:04:48.112Z,21.00
2018-06-11T17:07:27.733Z,21.00
2018-06-11T17:09:55.321Z,20.80
2018-06-11T17:12:30.469Z,20.80
2018-06-11T17:14:57.418Z,20.80
2018-06-11T17:17:24.379Z,20.70
2018-06-11T17:19:51.380Z,20.70
2018-06-11T17:22:19.108Z,20.60
2018-06-11T17:24:45.987Z,20.60
2018-06-11T17:27:13.622Z,20.80
2018-06-11T17:29:43.938Z,20.80
2018-06-11T17:34:59.364Z,20.80
2018-06-11T17:37:29.444Z,20.70
2018-06-11T17:39:56.973Z,20.70
2018-06-11T17:42:24.181Z,20.70
2018-06-11T17:44:51.641Z,20.80
2018-06-11T17:47:22.061Z,20.70
2018-06-11T17:49:50.668Z,20.70
2018-06-11T17:52:18.743Z,20.60
2018-06-11T17:54:46.823Z,20.60
2018-06-11T17:57:14.377Z,20.50
2018-06-11T17:59:44.165Z,20.60
2018-06-11T18:02:11.134Z,20.60
2018-06-11T18:04:38.249Z,20.60
2018-06-11T18:07:07.923Z,20.50
2018-06-11T18:09:37.703Z,20.50
2018-06-11T18:12:04.734Z,20.50
2018-06-11T18:14:31.831Z,20.50
2018-06-11T18:17:00.804Z,20.50
2018-06-11T18:19:27.965Z,20.50
2018-06-11T18:21:54.901Z,20.60
2018-06-11T18:24:32.104Z,20.50
2018-06-11T18:27:14.900Z,20.60
2018-06-11T18:29:42.778Z,20.50
2018-06-11T18:32:22.056Z,20.50
2018-06-11T18:37:44.545Z,20.50
2018-06-11T18:40:23.750Z,20.60
2018-06-11T18:42:55.041Z,20.60
2018-06-11T18:48:20.493Z,20.50
2018-06-11T18:51:01.250Z,20.40
2018-06-11T18:53:41.001Z,20.30
2018-06-11T18:56:19.625Z,20.20
2018-06-11T18:58:52.391Z,20.30
2018-06-11T19:01:22.328Z,20.30
2018-06-11T19:03:50.208Z,20.40
2018-06-11T19:06:17.849Z,20.30
2018-06-11T19:08:45.870Z,20.20
2018-06-11T19:11:16.648Z,20.20
2018-06-11T19:13:43.805Z,20.20
2018-06-11T19:16:25.833Z,20.30
2018-06-11T19:18:53.558Z,20.30
2018-06-11T19:21:22.404Z,20.30
2018-06-11T19:23:49.548Z,20.30
2018-06-11T19:26:19.060Z,20.40
2018-06-11T19:28:47.849Z,20.40
2018-06-11T19:31:15.886Z,20.40
2018-06-11T19:33:42.837Z,20.30
2018-06-11T19:36:10.474Z,20.30
2018-06-11T19:38:37.433Z,20.20
2018-06-11T19:41:07.815Z,20.00
2018-06-11T19:43:35.653Z,20.10
2018-06-11T19:46:03.598Z,20.00
2018-06-11T19:48:30.733Z,19.90
2018-06-11T19:50:57.736Z,20.00
2018-06-11T19:53:24.715Z,19.90
2018-06-11T19:55:51.667Z,19.90
2018-06-11T19:58:18.641Z,19.90
2018-06-11T20:00:45.993Z,19.90
2018-06-11T20:03:13.715Z,19.90
2018-06-11T20:05:40.766Z,19.90
2018-06-11T20:08:10.601Z,19.90
2018-06-11T20:10:41.036Z,19.80
2018-06-11T20:13:08.709Z,19.90
2018-06-11T20:15:36.926Z,19.80
2018-06-11T20:18:11.264Z,19.80
2018-06-11T20:20:39.279Z,19.80
2018-06-11T20:23:07.037Z,19.80
2018-06-11T20:25:40.236Z,19.80
2018-06-11T20:28:12.952Z,19.70
2018-06-11T20:30:44.949Z,19.80
2018-06-11T20:33:12.465Z,19.80
2018-06-11T20:35:50.768Z,19.70
2018-06-11T20:38:18.272Z,19.80
2018-06-11T20:40:45.870Z,19.60
2018-06-11T20:43:13.606Z,19.60
2018-06-11T20:45:44.225Z,19.60
2018-06-11T20:48:15.995Z,19.60
2018-06-11T20:50:43.163Z,19.50
2018-06-11T20:53:10.029Z,19.60
2018-06-11T20:55:40.324Z,19.50
2018-06-11T20:58:11.265Z,19.50
2018-06-11T21:00:40.794Z,19.40
2018-06-11T21:03:07.912Z,19.30
2018-06-11T21:05:37.220Z,19.20
2018-06-11T21:08:05.113Z,19.10
2018-06-11T21:10:32.972Z,19.10
2018-06-11T21:13:00.597Z,19.10
2018-06-11T21:15:27.537Z,19.00
2018-06-11T21:17:54.505Z,19.00
2018-06-11T21:20:23.448Z,19.00
2018-06-11T21:22:50.421Z,19.00
2018-06-11T21:25:19.087Z,18.90
2018-06-11T21:27:45.953Z,18.90
2018-06-11T21:30:13.307Z,18.90
2018-06-11T21:32:40.922Z,18.90
2018-06-11T21:35:07.928Z,18.80
2018-06-11T21:37:38.343Z,18.80
2018-06-11T21:40:05.554Z,18.80
2018-06-11T21:42:33.634Z,18.80
2018-06-11T21:45:00.896Z,18.80
2018-06-11T21:47:27.774Z,18.80
2018-06-11T21:49:54.681Z,18.80
2018-06-11T21:52:22.093Z,18.70
2018-06-11T21:54:50.387Z,18.80
2018-06-11T21:57:17.941Z,18.80
2018-06-11T21:59:44.816Z,18.80
2018-06-11T22:02:11.992Z,18.70
2018-06-11T22:04:38.928Z,18.80
2018-06-11T22:07:05.800Z,18.80
2018-06-11T22:09:32.749Z,18.80
2018-06-11T22:11:59.690Z,18.80
2018-06-11T22:14:26.597Z,18.80
2018-06-11T22:16:53.622Z,18.90
2018-06-11T22:19:20.492Z,18.80
2018-06-11T22:21:47.552Z,18.80
2018-06-11T22:24:14.515Z,18.70
2018-06-11T22:26:41.424Z,18.70
2018-06-11T22:29:08.376Z,18.80
2018-06-11T22:31:35.306Z,18.70
2018-06-11T22:34:03.065Z,18.70
2018-06-11T22:36:29.951Z,18.70
2018-06-11T22:38:56.953Z,18.80
2018-06-11T22:41:23.926Z,18.80
2018-06-11T22:43:50.916Z,18.80
2018-06-11T22:46:17.788Z,18.80
2018-06-11T22:48:44.787Z,18.80
2018-06-11T22:51:11.641Z,18.90
2018-06-11T22:53:38.579Z,18.70
2018-06-11T22:56:05.525Z,18.70
2018-06-11T22:58:32.480Z,18.70
2018-06-11T23:00:59.333Z,18.60
2018-06-11T23:03:26.269Z,18.60
2018-06-11T23:05:53.201Z,18.50
2018-06-11T23:08:20.108Z,18.60
2018-06-11T23:10:47.741Z,18.50
2018-06-11T23:13:14.705Z,18.40
2018-06-11T23:15:41.584Z,18.40
2018-06-11T23:18:10.860Z,18.40
2018-06-11T23:20:37.773Z,18.40
2018-06-11T23:23:04.661Z,18.40
2018-06-11T23:25:32.329Z,18.50
2018-06-11T23:27:59.267Z,18.50
2018-06-11T23:30:26.940Z,18.50
2018-06-11T23:32:53.893Z,18.50
2018-06-11T23:35:21.555Z,18.50
2018-06-11T23:37:49.275Z,18.50
2018-06-11T23:40:16.293Z,18.50
2018-06-11T23:42:43.154Z,18.40
2018-06-11T23:45:10.557Z,18.40
2018-06-11T23:47:37.591Z,18.40
2018-06-11T23:50:05.044Z,18.40
2018-06-11T23:52:32.420Z,18.40
2018-06-11T23:54:59.517Z,18.30
2018-06-11T23:57:26.754Z,18.20
2018-06-11T23:59:53.913Z,18.20
